Time;durP1;ratioP1;P1;durP2;ratioP2;P2;SDS_P1;SDS_P2;PMS_P1;PMS_P2;Temp;Humidity;BMP_temperature;BMP_pressure;BME280_temperature;BME280_humidity;BME280_pressure;Samples;Min_cycle;Max_cycle;Signal;HPM_P1;HPM_P2
2023/04/05 00:01:50;;;;;;;;;;;;;;;9.73;100.00;100664.47;4921487;28;19950;-88
2023/04/05 00:04:19;;;;;;;;;;;;;;;9.73;100.00;100653.09;4919750;28;20217;-90
2023/04/05 00:06:51;;;;;;;;;;;;;;;9.74;100.00;100650.31;4937632;29;19979;-91
2023/04/05 00:09:19;;;;;;;;;;;;;;;9.72;100.00;100643.47;4925230;28;19923;-89
2023/04/05 00:11:47;;;;;;;;;;;;;;;9.71;100.00;100647.94;4930967;29;19918;-90
2023/04/05 00:14:15;;;;;;;;;;;;;;;9.69;100.00;100647.25;4931588;28;19919;-89
2023/04/05 00:16:45;;;;;;;;;;;;;;;9.69;100.00;100647.25;4948028;28;19918;-89
2023/04/05 00:19:12;;;;;;;;;;;;;;;9.71;100.00;100653.22;4951387;28;20367;-88
2023/04/05 00:21:40;;;;;;;;;;;;;;;9.72;100.00;100643.47;4923315;29;19929;-89
2023/04/05 00:24:14;;;;;;;;;;;;;;;9.75;100.00;100645.84;4930977;29;20426;-91
2023/04/05 00:26:43;;;;;;;;;;;;;;;9.74;100.00;100642.41;4936452;29;20256;-86
2023/04/05 00:29:12;;;;;;;;;;;;;;;9.73;100.00;100645.19;4921315;28;19930;-88
2023/04/05 00:31:40;;;;;;;;;;;;;;;9.74;100.00;100631.84;4903000;29;19977;-89
2023/04/05 00:34:11;;;;;;;;;;;;;;;9.73;100.00;100642.53;4925166;28;19974;-87
2023/04/05 00:36:40;;;;;;;;;;;;;;;9.73;100.00;100646.00;4955823;28;19929;-88
2023/04/05 00:39:07;;;;;;;;;;;;;;;9.76;100.00;100631.72;4936457;28;19993;-88
2023/04/05 00:41:36;;;;;;;;;;;;;;;9.78;100.00;100635.03;4918204;29;20021;-90
2023/04/05 00:44:04;;;;;;;;;;;;;;;9.77;100.00;100636.00;4914117;28;19926;-89
2023/04/05 00:46:36;;;;;;;;;;;;;;;9.79;100.00;100629.63;4952354;28;19926;-91
2023/04/05 00:49:04;;;;;;;;;;;;;;;9.79;100.00;100637.53;4923647;28;19918;-89
2023/04/05 00:51:33;;;;;;;;;;;;;;;9.82;100.00;100630.31;4933319;29;19923;-90
2023/04/05 00:54:03;;;;;;;;;;;;;;;9.81;100.00;100626.84;4925378;29;19959;-90
2023/04/05 00:56:33;;;;;;;;;;;;;;;9.85;100.00;100622.13;4943141;29;20009;-89
2023/04/05 00:59:02;;;;;;;;;;;;;;;9.83;100.00;100610.88;4904055;29;20477;-89
2023/04/05 01:01:31;;;;;;;;;;;;;;;9.83;100.00;100613.50;4924399;29;19919;-89
2023/04/05 01:04:01;;;;;;;;;;;;;;;9.83;100.00;100603.78;4930115;29;19923;-87
2023/04/05 01:06:41;;;;;;;;;;;;;;;9.82;100.00;100612.69;4928947;29;19919;-90
2023/04/05 01:09:25;;;;;;;;;;;;;;;9.83;100.00;100603.78;4900782;29;19925;-87
2023/04/05 01:11:55;;;;;;;;;;;;;;;9.83;100.00;100602.94;4923831;29;19929;-87
2023/04/05 01:14:23;;;;;;;;;;;;;;;9.82;100.00;100602.13;4951918;28;19918;-87
2023/04/05 01:16:56;;;;;;;;;;;;;;;9.80;100.00;100593.50;4950671;28;19925;-90
2023/04/05 01:19:27;;;;;;;;;;;;;;;9.83;100.00;100589.75;4888327;29;19930;-85
2023/04/05 01:22:12;;;;;;;;;;;;;;;9.80;100.00;100589.06;4926444;29;20009;-87
2023/04/05 01:25:01;;;;;;;;;;;;;;;9.78;100.00;100593.63;4919161;28;19922;-89
2023/04/05 01:27:51;;;;;;;;;;;;;;;9.79;100.00;100590.00;4926899;29;19922;-90
2023/04/05 01:30:22;;;;;;;;;;;;;;;9.82;100.00;100586.28;4886265;29;19918;-89
2023/04/05 01:33:07;;;;;;;;;;;;;;;9.79;100.00;100587.38;4935393;29;19918;-87
2023/04/05 01:35:47;;;;;;;;;;;;;;;9.80;100.00;100578.50;4928408;28;20286;-86
2023/04/05 01:38:17;;;;;;;;;;;;;;;9.81;100.00;100587.25;4893711;29;19981;-86
2023/04/05 01:40:45;;;;;;;;;;;;;;;9.80;100.00;100582.94;4913015;28;19927;-88
2023/04/05 01:43:15;;;;;;;;;;;;;;;9.81;100.00;100581.97;4927729;29;19954;-88
2023/04/05 01:45:44;;;;;;;;;;;;;;;9.82;100.00;100581.00;4935102;28;19973;-86
2023/04/05 01:48:13;;;;;;;;;;;;;;;9.82;100.00;100588.94;4933957;29;19919;-86
2023/04/05 01:50:42;;;;;;;;;;;;;;;9.84;100.00;100583.50;4949136;28;19930;-87
2023/04/05 01:53:12;;;;;;;;;;;;;;;9.85;100.00;100579.91;4936376;29;19918;-87
2023/04/05 01:55:42;;;;;;;;;;;;;;;9.85;100.00;100578.09;4935945;29;19918;-87
2023/04/05 01:58:10;;;;;;;;;;;;;;;9.85;100.00;100577.25;4921028;29;19941;-90
2023/04/05 02:00:38;;;;;;;;;;;;;;;9.83;100.00;100573.91;4937483;29;19974;-88
2023/04/05 02:03:06;;;;;;;;;;;;;;;9.82;100.00;100562.53;4920498;29;19918;-86
2023/04/05 02:05:33;;;;;;;;;;;;;;;9.84;100.00;100565.03;4914411;29;19919;-88
2023/04/05 02:08:02;;;;;;;;;;;;;;;9.83;100.00;100558.91;4920916;28;19925;-89
2023/04/05 02:10:30;;;;;;;;;;;;;;;9.84;100.00;100551.84;4937594;29;19993;-89
2023/04/05 02:12:58;;;;;;;;;;;;;;;9.85;100.00;100550.84;4918467;28;19927;-90
2023/04/05 02:15:26;;;;;;;;;;;;;;;9.85;100.00;100532.38;4939408;28;20006;-86
2023/04/05 02:17:54;;;;;;;;;;;;;;;9.85;100.00;100540.28;4921018;29;20045;-87
2023/04/05 02:20:24;;;;;;;;;;;;;;;9.86;100.00;100531.41;4921588;29;19979;-89
2023/04/05 02:22:52;;;;;;;;;;;;;;;9.86;100.00;100532.22;4920881;28;20009;-89
2023/04/05 02:25:21;;;;;;;;;;;;;;;9.87;100.00;100533.06;4921468;29;19918;-89
2023/04/05 02:27:48;;;;;;;;;;;;;;;9.88;100.00;100524.19;4920976;29;19941;-87
2023/04/05 02:30:16;;;;;;;;;;;;;;;9.88;100.00;100521.53;4937388;29;19918;-87
2023/04/05 02:32:44;;;;;;;;;;;;;;;9.88;100.00;100524.19;4918266;29;19966;-89
2023/04/05 02:35:12;;;;;;;;;;;;;;;9.85;100.00;100520.00;4911973;29;19918;-86
2023/04/05 02:37:41;;;;;;;;;;;;;;;9.87;100.00;100525.16;4905558;28;19929;-87
2023/04/05 02:40:12;;;;;;;;;;;;;;;9.88;100.00;100524.19;4912590;29;20025;-89
2023/04/05 02:42:39;;;;;;;;;;;;;;;9.92;100.00;100515.03;4919216;29;20001;-88
2023/04/05 02:45:15;;;;;;;;;;;;;;;9.92;100.00;100518.47;4920547;29;19923;-88
2023/04/05 02:47:43;;;;;;;;;;;;;;;9.92;100.00;100515.84;4931459;29;19918;-86
2023/04/05 02:50:11;;;;;;;;;;;;;;;9.93;100.00;100514.03;4920343;29;19946;-89
2023/04/05 02:52:45;;;;;;;;;;;;;;;9.93;100.00;100517.53;4915048;29;19929;-87
2023/04/05 02:55:15;;;;;;;;;;;;;;;9.93;100.00;100512.25;4920737;29;19930;-87
2023/04/05 02:57:45;;;;;;;;;;;;;;;9.96;100.00;100513.75;4886843;29;20010;-86
2023/04/05 03:00:23;;;;;;;;;;;;;;;9.96;100.00;100512.91;4897024;29;19938;-87
2023/04/05 03:02:53;;;;;;;;;;;;;;;9.99;100.00;100513.50;4913165;29;19922;-89
2023/04/05 03:05:21;;;;;;;;;;;;;;;9.99;100.00;100513.50;4925218;29;19919;-88
2023/04/05 03:07:51;;;;;;;;;;;;;;;10.00;100.00;100506.41;4914077;29;19926;-86
2023/04/05 03:10:27;;;;;;;;;;;;;;;10.00;100.00;100511.69;4934181;29;20001;-88
2023/04/05 03:13:01;;;;;;;;;;;;;;;9.99;100.00;100513.50;4916091;29;19926;-88
2023/04/05 03:15:31;;;;;;;;;;;;;;;9.99;100.00;100513.50;4888782;29;19931;-88
2023/04/05 03:18:03;;;;;;;;;;;;;;;10.00;100.00;100507.22;4933567;29;19919;-87
2023/04/05 03:20:35;;;;;;;;;;;;;;;10.00;100.00;100515.16;4913791;29;20017;-90
2023/04/05 03:23:05;;;;;;;;;;;;;;;10.00;100.00;100506.41;4907079;29;19923;-89
2023/04/05 03:25:39;;;;;;;;;;;;;;;9.99;100.00;100507.38;4899617;29;20626;-87
2023/04/05 03:28:10;;;;;;;;;;;;;;;9.98;100.00;100505.69;4898050;29;19923;-86
2023/04/05 03:30:42;;;;;;;;;;;;;;;9.97;100.00;100499.59;4911653;28;19927;-87
2023/04/05 03:33:20;;;;;;;;;;;;;;;9.97;100.00;100502.22;4909001;29;19923;-88
2023/04/05 03:35:52;;;;;;;;;;;;;;;9.97;100.00;100499.59;4910709;29;20013;-90
2023/04/05 03:38:23;;;;;;;;;;;;;;;9.97;100.00;100496.94;4900722;29;19926;-89
2023/04/05 03:41:06;;;;;;;;;;;;;;;9.99;100.00;100494.16;4894619;29;20018;-86
2023/04/05 03:43:35;;;;;;;;;;;;;;;9.98;100.00;100501.28;4903429;29;20035;-90
2023/04/05 03:46:03;;;;;;;;;;;;;;;9.99;100.00;100496.78;4893543;29;20465;-88
2023/04/05 03:48:31;;;;;;;;;;;;;;;9.99;100.00;100491.50;4916255;29;19926;-91
2023/04/05 03:51:00;;;;;;;;;;;;;;;10.00;100.00;100490.56;4898255;29;19931;-88
2023/04/05 03:53:28;;;;;;;;;;;;;;;9.99;100.00;100492.38;4935513;29;20422;-86
2023/04/05 03:55:57;;;;;;;;;;;;;;;10.00;100.00;100501.13;4907660;29;19918;-89
2023/04/05 03:58:43;;;;;;;;;;;;;;;10.00;100.00;100487.94;4917217;29;20478;-90
2023/04/05 04:01:12;;;;;;;;;;;;;;;10.00;100.00;100483.47;4929620;29;19922;-90
2023/04/05 04:03:40;;;;;;;;;;;;;;;10.00;100.00;100478.19;4938667;29;19925;-90
2023/04/05 04:06:08;;;;;;;;;;;;;;;10.01;100.00;100476.38;4922859;29;19922;-88
2023/04/05 04:08:38;;;;;;;;;;;;;;;10.01;100.00;100473.75;4922904;29;20037;-91
2023/04/05 04:11:08;;;;;;;;;;;;;;;10.02;100.00;100476.25;4924089;29;19942;-90
2023/04/05 04:13:39;;;;;;;;;;;;;;;10.02;100.00;100473.59;4920777;28;19918;-89
2023/04/05 04:16:19;;;;;;;;;;;;;;;10.02;100.00;100465.69;4928338;28;19921;-88
2023/04/05 04:19:12;;;;;;;;;;;;;;;10.00;100.00;100470.25;4931058;28;19918;-89
2023/04/05 04:21:58;;;;;;;;;;;;;;;10.01;100.00;100456.09;4939280;29;19922;-88
2023/04/05 04:24:48;;;;;;;;;;;;;;;10.01;100.00;100457.91;4939476;28;19925;-90
2023/04/05 04:27:49;;;;;;;;;;;;;;;10.02;100.00;100462.19;4910729;29;19929;-87
2023/04/05 04:30:33;;;;;;;;;;;;;;;10.03;100.00;100459.41;4927148;29;19954;-88
2023/04/05 04:33:25;;;;;;;;;;;;;;;10.05;100.00;100451.34;4914457;29;19923;-88
2023/04/05 04:36:07;;;;;;;;;;;;;;;10.07;100.00;100452.03;4922965;29;19942;-88
2023/04/05 04:39:06;;;;;;;;;;;;;;;10.09;100.00;100455.38;4925369;29;19918;-88
2023/04/05 04:41:54;;;;;;;;;;;;;;;10.12;100.00;100448.97;4909695;29;19923;-88
2023/04/05 04:45:01;;;;;;;;;;;;;;;10.12;100.00;100443.69;4870678;29;19923;-89
2023/04/05 04:47:51;;;;;;;;;;;;;;;10.14;100.00;100450.53;4933839;29;19918;-88
2023/04/05 04:50:32;;;;;;;;;;;;;;;10.17;100.00;100439.69;4932271;29;19933;-89
2023/04/05 04:53:02;;;;;;;;;;;;;;;10.20;100.00;100443.84;4936667;29;19919;-90
2023/04/05 04:55:32;;;;;;;;;;;;;;;10.23;100.00;100443.53;4916068;29;20030;-89
2023/04/05 04:57:59;;;;;;;;;;;;;;;10.22;100.00;100433.97;4957917;28;20005;-90
2023/04/05 05:00:29;;;;;;;;;;;;;;;10.23;100.00;100440.06;4906729;28;20004;-89
2023/04/05 05:02:59;;;;;;;;;;;;;;;10.25;100.00;100438.13;4927454;29;20534;-90
2023/04/05 05:05:35;;;;;;;;;;;;;;;10.27;100.00;100438.81;4924124;28;19922;-89
2023/04/05 05:08:05;;;;;;;;;;;;;;;10.29;100.00;100434.22;4936094;29;19918;-88
2023/04/05 05:10:41;;;;;;;;;;;;;;;10.28;100.00;100436.03;4934661;28;20398;-87
2023/04/05 05:13:09;;;;;;;;;;;;;;;10.28;100.00;100436.03;4928475;29;19974;-90
2023/04/05 05:15:40;;;;;;;;;;;;;;;10.31;100.00;100437.56;4919259;29;19919;-88
2023/04/05 05:18:07;;;;;;;;;;;;;;;10.33;100.00;100438.25;4956814;28;19923;-89
2023/04/05 05:20:36;;;;;;;;;;;;;;;10.35;100.00;100438.91;4922825;29;20582;-89
2023/04/05 05:23:10;;;;;;;;;;;;;;;10.35;100.00;100431.00;4938938;28;20282;-90
2023/04/05 05:25:39;;;;;;;;;;;;;;;10.34;100.00;100426.69;4931959;29;19918;-89
2023/04/05 05:28:08;;;;;;;;;;;;;;;10.36;100.00;100430.03;4936927;28;19974;-89
2023/04/05 05:30:35;;;;;;;;;;;;;;;10.37;100.00;100426.41;4932741;29;19922;-89
2023/04/05 05:33:06;;;;;;;;;;;;;;;10.39;100.00;100428.91;4919313;28;19925;-89
2023/04/05 05:35:36;;;;;;;;;;;;;;;10.39;100.00;100431.53;4913749;29;19918;-89
2023/04/05 05:38:04;;;;;;;;;;;;;;;10.39;100.00;100426.25;4936235;29;19919;-89
2023/04/05 05:40:32;;;;;;;;;;;;;;;10.39;100.00;100432.38;4938320;28;19985;-89
2023/04/05 05:42:59;;;;;;;;;;;;;;;10.41;100.00;100433.09;4914687;28;19918;-91
2023/04/05 05:45:28;;;;;;;;;;;;;;;10.41;100.00;100438.38;4924670;29;20359;-90
2023/04/05 05:47:56;;;;;;;;;;;;;;;10.41;100.00;100433.09;4906463;29;19918;-89
2023/04/05 05:50:25;;;;;;;;;;;;;;;10.42;100.00;100434.75;4945304;29;19948;-89
2023/04/05 05:52:52;;;;;;;;;;;;;;;10.43;100.00;100441.69;4918452;29;19923;-90
2023/04/05 05:55:21;;;;;;;;;;;;;;;10.45;100.00;100440.72;4921652;29;19942;-91
2023/04/05 05:57:47;;;;;;;;;;;;;;;10.48;100.00;100445.75;4922453;28;19918;-90
2023/04/05 06:00:15;;;;;;;;;;;;;;;10.49;100.00;100442.97;4905673;29;19940;-89
2023/04/05 06:02:49;;;;;;;;;;;;;;;10.49;100.00;100434.19;4921236;28;19918;-89
2023/04/05 06:05:19;;;;;;;;;;;;;;;10.49;100.00;100435.03;4905584;28;20007;-88
2023/04/05 06:07:48;;;;;;;;;;;;;;;10.48;100.00;100427.25;4908143;28;19922;-88
2023/04/05 06:10:19;;;;;;;;;;;;;;;10.46;100.00;100419.47;4913808;28;19922;-88
2023/04/05 06:12:47;;;;;;;;;;;;;;;10.46;100.00;100424.75;4935303;29;19925;-87
2023/04/05 06:15:15;;;;;;;;;;;;;;;10.47;100.00;100431.69;4904612;28;19925;-88
2023/04/05 06:17:43;;;;;;;;;;;;;;;10.45;100.00;100420.41;4904837;29;19934;-87
2023/04/05 06:20:11;;;;;;;;;;;;;;;10.46;100.00;100423.88;4936140;29;19922;-86
2023/04/05 06:22:40;;;;;;;;;;;;;;;10.47;100.00;100421.13;4905361;29;19922;-86
2023/04/05 06:25:08;;;;;;;;;;;;;;;10.47;100.00;100421.13;4952331;29;19981;-88
2023/04/05 06:27:36;;;;;;;;;;;;;;;10.48;100.00;100416.69;4914799;29;19926;-87
2023/04/05 06:30:03;;;;;;;;;;;;;;;10.50;100.00;100420.00;4917068;29;20355;-90
2023/04/05 06:32:32;;;;;;;;;;;;;;;10.51;100.00;100422.50;4936586;29;19965;-89
2023/04/05 06:35:02;;;;;;;;;;;;;;;10.51;100.00;100429.63;4903003;29;19923;-90
2023/04/05 06:37:37;;;;;;;;;;;;;;;10.52;100.00;100424.19;4906266;29;19965;-90
2023/04/05 06:40:05;;;;;;;;;;;;;;;10.52;100.00;100416.25;4913304;28;19953;-87
2023/04/05 06:42:39;;;;;;;;;;;;;;;10.54;100.00;100419.56;4951938;28;19918;-87
2023/04/05 06:45:10;;;;;;;;;;;;;;;10.56;100.00;100419.41;4919593;29;20337;-89
2023/04/05 06:47:40;;;;;;;;;;;;;;;10.57;100.00;100415.81;4951763;28;19980;-88
2023/04/05 06:50:09;;;;;;;;;;;;;;;10.58;100.00;100414.81;4942219;29;20013;-88
2023/04/05 06:52:37;;;;;;;;;;;;;;;10.59;100.00;100415.66;4923305;29;19923;-87
2023/04/05 06:55:05;;;;;;;;;;;;;;;10.62;100.00;100423.31;4924978;29;20375;-87
2023/04/05 06:57:32;;;;;;;;;;;;;;;10.63;100.00;100427.59;4939599;29;19918;-90
2023/04/05 07:00:00;;;;;;;;;;;;;;;10.64;100.00;100421.34;4939998;29;20523;-89
2023/04/05 07:02:28;;;;;;;;;;;;;;;10.65;100.00;100425.66;4960199;28;19933;-88
2023/04/05 07:05:04;;;;;;;;;;;;;;;10.66;100.00;100422.88;4938360;29;19929;-88
2023/04/05 07:07:35;;;;;;;;;;;;;;;10.69;100.00;100421.75;4927123;28;19918;-89
2023/04/05 07:10:11;;;;;;;;;;;;;;;10.71;100.00;100427.72;4925998;29;20402;-89
2023/04/05 07:12:41;;;;;;;;;;;;;;;10.75;100.00;100437.00;4929422;29;19919;-90
2023/04/05 07:15:11;;;;;;;;;;;;;;;10.75;100.00;100426.44;4939348;29;19918;-89
2023/04/05 07:17:40;;;;;;;;;;;;;;;10.75;100.00;100428.28;4920753;29;19925;-87
2023/04/05 07:20:08;;;;;;;;;;;;;;;10.75;100.00;100423.78;4895105;28;19934;-88
2023/04/05 07:22:36;;;;;;;;;;;;;;;10.74;100.00;100418.66;4922849;29;19923;-88
2023/04/05 07:25:04;;;;;;;;;;;;;;;10.77;100.00;100432.41;4916296;29;20551;-89
2023/04/05 07:27:34;;;;;;;;;;;;;;;10.79;100.00;100434.91;4926763;28;20695;-87
2023/04/05 07:30:03;;;;;;;;;;;;;;;10.79;100.00;100424.34;4915019;29;19945;-89
2023/04/05 07:32:31;;;;;;;;;;;;;;;10.79;100.00;100424.34;4910619;28;20071;-88
2023/04/05 07:35:02;;;;;;;;;;;;;;;10.81;100.00;100421.56;4922884;28;19923;-88
2023/04/05 07:37:37;;;;;;;;;;;;;;;10.82;100.00;100417.91;4925271;29;20009;-89
2023/04/05 07:40:09;;;;;;;;;;;;;;;10.84;100.00;100429.19;4930496;29;19923;-90
2023/04/05 07:42:45;;;;;;;;;;;;;;;10.88;100.00;100419.97;4909327;29;19977;-89
2023/04/05 07:45:14;;;;;;;;;;;;;;;10.89;100.00;100419.81;4906845;28;19922;-86
2023/04/05 07:47:42;;;;;;;;;;;;;;;10.91;100.00;100417.88;4915851;28;19914;-88
2023/04/05 07:50:13;;;;;;;;;;;;;;;10.91;100.00;100412.59;4909648;29;19994;-88
2023/04/05 07:52:41;;;;;;;;;;;;;;;10.92;100.00;100411.59;4910251;29;20335;-88
2023/04/05 07:55:11;;;;;;;;;;;;;;;10.93;100.00;100412.44;4940956;28;19915;-90
2023/04/05 07:57:41;;;;;;;;;;;;;;;10.94;100.00;100408.81;4930597;29;19914;-88
2023/04/05 08:00:12;;;;;;;;;;;;;;;10.94;100.00;100400.06;4927210;29;19926;-88
2023/04/05 08:02:41;;;;;;;;;;;;;;;10.95;100.00;100393.78;4934055;29;20256;-88
2023/04/05 08:05:10;;;;;;;;;;;;;;;10.93;100.00;100399.22;4905272;29;19914;-87
2023/04/05 08:07:38;;;;;;;;;;;;;;;10.99;100.00;100405.75;4922140;29;20279;-88
2023/04/05 08:10:07;;;;;;;;;;;;;;;11.01;100.00;100403.75;4948218;29;19915;-89
2023/04/05 08:12:44;;;;;;;;;;;;;;;11.07;100.00;100399.72;4923927;29;19949;-89
2023/04/05 08:15:14;;;;;;;;;;;;;;;11.13;100.00;100396.47;4924345;29;19918;-91
2023/04/05 08:17:44;;;;;;;;;;;;;;;11.15;100.00;100400.63;4922010;29;19937;-87
2023/04/05 08:20:13;;;;;;;;;;;;;;;11.15;100.00;100389.19;4952617;28;19919;-86
2023/04/05 08:22:42;;;;;;;;;;;;;;;11.17;100.00;100400.47;4936104;28;19926;-85
2023/04/05 08:25:10;;;;;;;;;;;;;;;11.18;100.00;100398.66;4919544;29;19930;-86
2023/04/05 08:27:38;;;;;;;;;;;;;;;11.18;100.00;100396.03;4924569;28;19921;-87
2023/04/05 08:30:06;;;;;;;;;;;;;;;11.16;100.00;100399.63;4946765;29;19914;-86
2023/04/05 08:32:36;;;;;;;;;;;;;;;11.22;100.00;100400.03;4949343;29;19977;-87
2023/04/05 08:35:06;;;;;;;;;;;;;;;11.24;100.00;100398.06;4954116;28;19943;-88
2023/04/05 08:37:36;;;;;;;;;;;;;;;11.25;100.00;100397.91;4952600;28;20358;-88
2023/04/05 08:40:12;;;;;;;;;;;;;;;11.29;100.00;100387.88;4911476;29;19970;-87
2023/04/05 08:42:44;;;;;;;;;;;;;;;11.32;100.00;100389.38;4935592;29;19926;-89
2023/04/05 08:45:17;;;;;;;;;;;;;;;11.37;100.00;100387.94;4926759;28;19914;-87
2023/04/05 08:47:48;;;;;;;;;;;;;;;11.41;100.00;100384.00;4919502;29;19915;-87
2023/04/05 08:50:16;;;;;;;;;;;;;;;11.39;100.00;100378.03;4940094;28;20006;-88
2023/04/05 08:52:48;;;;;;;;;;;;;;;11.44;100.00;100374.94;4922558;29;19919;-87
2023/04/05 08:55:16;;;;;;;;;;;;;;;11.46;100.00;100380.91;4923132;29;19922;-88
2023/04/05 08:57:52;;;;;;;;;;;;;;;11.51;100.00;100380.47;4953938;29;19914;-88
2023/04/05 09:00:20;;;;;;;;;;;;;;;11.52;100.00;100377.66;4922010;29;19969;-86
2023/04/05 09:02:54;;;;;;;;;;;;;;;11.56;100.00;100380.84;4936158;29;19914;-89
2023/04/05 09:05:24;;;;;;;;;;;;;;;11.57;100.00;100379.84;4946950;29;19921;-89
2023/04/05 09:08:01;;;;;;;;;;;;;;;11.61;100.00;100380.38;4940227;29;20419;-90
2023/04/05 09:10:31;;;;;;;;;;;;;;;11.65;100.00;100381.72;4920496;29;19961;-87
2023/04/05 09:13:02;;;;;;;;;;;;;;;11.65;100.00;100387.03;4944520;29;19918;-88
2023/04/05 09:15:31;;;;;;;;;;;;;;;11.67;100.00;100382.41;4938205;29;19922;-89
2023/04/05 09:17:59;;;;;;;;;;;;;;;11.66;100.00;100389.50;4913892;29;19918;-88
2023/04/05 09:20:26;;;;;;;;;;;;;;;11.65;100.00;100390.50;4930432;29;19918;-89
2023/04/05 09:22:56;;;;;;;;;;;;;;;11.67;100.00;100387.72;4952300;28;20046;-88
2023/04/05 09:25:30;;;;;;;;;;;;;;;11.66;100.00;100389.50;4935137;29;19960;-88
2023/04/05 09:27:59;;;;;;;;;;;;;;;11.66;100.00;100378.94;4920132;29;19925;-88
2023/04/05 09:30:27;;;;;;;;;;;;;;;11.69;100.00;100384.91;4932952;29;19928;-89
2023/04/05 09:32:55;;;;;;;;;;;;;;;11.70;100.00;100375.97;4935722;29;19977;-87
2023/04/05 09:35:25;;;;;;;;;;;;;;;11.70;100.00;100384.75;4914472;29;20018;-89
2023/04/05 09:37:54;;;;;;;;;;;;;;;11.72;100.00;100377.47;4918962;29;19914;-88
2023/04/05 09:40:23;;;;;;;;;;;;;;;11.75;100.00;100382.47;4935424;29;19922;-87
2023/04/05 09:42:52;;;;;;;;;;;;;;;11.78;100.00;100383.97;4934682;29;19990;-87
2023/04/05 09:45:21;;;;;;;;;;;;;;;11.79;100.00;100383.00;4964811;28;20013;-88
2023/04/05 09:47:56;;;;;;;;;;;;;;;11.83;100.00;100383.53;4951763;29;19926;-88
2023/04/05 09:50:25;;;;;;;;;;;;;;;11.87;100.00;100384.88;4936801;29;19914;-88
2023/04/05 09:53:06;;;;;;;;;;;;;;;11.90;100.00;100384.56;4935367;29;19971;-86
2023/04/05 09:55:36;;;;;;;;;;;;;;;11.89;100.00;100383.75;4949061;29;19914;-88
2023/04/05 09:58:11;;;;;;;;;;;;;;;11.91;100.00;100387.03;4906883;29;19966;-89
2023/04/05 10:00:52;;;;;;;;;;;;;;;11.93;100.00;100383.44;4934423;29;20367;-87
2023/04/05 10:03:20;;;;;;;;;;;;;;;11.97;100.00;100376.81;4904650;29;19915;-89
2023/04/05 10:05:54;;;;;;;;;;;;;;;11.98;100.00;100368.72;4892569;29;19966;-89
2023/04/05 10:08:22;;;;;;;;;;;;;;;12.01;100.00;100370.22;4925415;29;19938;-87
2023/04/05 10:10:53;;;;;;;;;;;;;;;12.04;100.00;100378.69;4883714;29;19962;-90
2023/04/05 10:13:21;;;;;;;;;;;;;;;12.10;100.00;100381.75;4901588;29;19921;-87
2023/04/05 10:15:49;;;;;;;;;;;;;;;12.11;100.00;100383.41;4917623;29;19966;-88
2023/04/05 10:18:25;;;;;;;;;;;;;;;12.12;100.00;100383.25;4916777;29;20438;-89
2023/04/05 10:20:57;;;;;;;;;;;;;;;12.14;100.00;100385.75;4913264;29;19961;-88
2023/04/05 10:23:31;;;;;;;;;;;;;;;12.15;100.00;100385.59;4891833;29;19919;-90
2023/04/05 10:26:20;;;;;;;;;;;;;;;12.17;100.00;100390.72;4900685;29;19941;-89
2023/04/05 10:28:52;;;;;;;;;;;;;;;12.20;100.00;100384.28;4926522;29;19915;-90
2023/04/05 10:31:23;;;;;;;;;;;;;;;12.25;100.00;100392.59;4917442;29;19914;-89
2023/04/05 10:34:04;;;;;;;;;;;;;;;12.30;100.00;100392.97;4929212;29;19915;-89
2023/04/05 10:36:55;;;;;;;;;;;;;;;12.31;100.00;100386.66;4901710;29;19952;-89
2023/04/05 10:39:29;;;;;;;;;;;;;;;12.38;100.00;100387.72;4901490;29;19946;-88
2023/04/05 10:42:11;;;;;;;;;;;;;;;12.36;100.00;100389.69;4901401;29;20001;-88
2023/04/05 10:44:43;;;;;;;;;;;;;;;12.36;100.00;100386.22;4900736;29;19915;-89
2023/04/05 10:47:19;;;;;;;;;;;;;;;12.37;100.00;100380.75;4897824;29;20629;-87
2023/04/05 10:49:49;;;;;;;;;;;;;;;12.37;100.00;100385.22;4912700;29;19930;-90
2023/04/05 10:52:17;;;;;;;;;;;;;;;12.42;100.00;100384.75;4913741;29;19923;-88
2023/04/05 10:54:45;;;;;;;;;;;;;;;12.47;100.00;100387.75;4886969;29;20022;-89
2023/04/05 10:57:13;;;;;;;;;;;;;;;12.46;100.00;100380.78;4901806;29;20315;-89
2023/04/05 10:59:42;;;;;;;;;;;;;;;12.51;100.00;100378.47;4917098;29;19962;-88
2023/04/05 11:02:10;;;;;;;;;;;;;;;12.56;100.00;100378.84;4916294;29;19929;-87
2023/04/05 11:04:40;;;;;;;;;;;;;;;12.58;100.00;100376.84;4916200;29;19922;-89
2023/04/05 11:07:12;;;;;;;;;;;;;;;12.53;100.00;100366.72;4927878;29;19915;-87
2023/04/05 11:09:50;;;;;;;;;;;;;;;12.53;100.00;100363.25;4916478;29;19925;-87
2023/04/05 11:12:20;;;;;;;;;;;;;;;12.56;100.00;100357.63;4924752;29;19914;-89
2023/04/05 11:14:51;;;;;;;;;;;;;;;12.60;100.00;100360.78;4933003;29;20012;-87
2023/04/05 11:17:26;;;;;;;;;;;;;;;12.65;100.00;100356.69;4948208;29;19922;-88
2023/04/05 11:20:03;;;;;;;;;;;;;;;12.71;100.00;100344.59;4932429;29;19926;-86
2023/04/05 11:22:31;;;;;;;;;;;;;;;12.74;100.00;100341.59;4931032;29;19965;-90
2023/04/05 11:25:03;;;;;;;;;;;;;;;12.87;100.00;100346.47;4931849;29;20366;-89
2023/04/05 11:27:36;;;;;;;;;;;;;;;13.02;100.00;100345.84;4901706;29;19921;-89
2023/04/05 11:30:05;;;;;;;;;;;;;;;13.19;100.00;100343.19;4897061;29;19915;-88
2023/04/05 11:32:41;;;;;;;;;;;;;;;13.23;100.00;100350.69;4904953;29;19961;-87
2023/04/05 11:35:14;;;;;;;;;;;;;;;13.24;100.00;100346.19;4926244;29;19922;-86
2023/04/05 11:37:54;;;;;;;;;;;;;;;13.25;100.00;100348.69;4913010;29;20390;-88
2023/04/05 11:40:26;;;;;;;;;;;;;;;13.26;100.00;100342.41;4905195;29;19923;-85
2023/04/05 11:43:06;;;;;;;;;;;;;;;13.28;100.00;100342.22;4920448;29;19922;-86
2023/04/05 11:45:36;;;;;;;;;;;;;;;13.24;100.00;100347.03;4931938;29;19931;-90
2023/04/05 11:48:08;;;;;;;;;;;;;;;13.25;100.00;100345.22;4933743;29;19987;-88
2023/04/05 11:50:42;;;;;;;;;;;;;;;13.27;100.00;100344.03;4898221;29;19915;-89
2023/04/05 11:53:11;;;;;;;;;;;;;;;13.27;100.00;100352.00;4917073;29;19966;-89
2023/04/05 11:55:40;;;;;;;;;;;;;;;13.33;100.00;100341.72;4936974;29;19915;-89
2023/04/05 11:58:13;;;;;;;;;;;;;;;13.35;100.00;100345.03;4905525;29;19965;-88
2023/04/05 12:00:43;;;;;;;;;;;;;;;13.36;100.00;100336.91;4911924;29;19926;-89
2023/04/05 12:03:11;;;;;;;;;;;;;;;13.35;100.00;100340.56;4905070;29;19922;-90
2023/04/05 12:05:46;;;;;;;;;;;;;;;13.34;100.00;100332.75;4904880;29;19915;-87
2023/04/05 12:08:14;;;;;;;;;;;;;;;13.29;100.00;100330.59;4935166;29;19919;-89
2023/04/05 12:10:42;;;;;;;;;;;;;;;13.27;100.00;100330.78;4935382;29;19958;-89
2023/04/05 12:13:10;;;;;;;;;;;;;;;13.25;100.00;100335.41;4913064;29;19914;-90
2023/04/05 12:15:40;;;;;;;;;;;;;;;13.23;100.00;100328.63;4904728;29;19915;-89
2023/04/05 12:18:14;;;;;;;;;;;;;;;13.24;100.00;100327.59;4936276;29;20031;-90
2023/04/05 12:20:44;;;;;;;;;;;;;;;13.26;100.00;100331.78;4916236;29;20371;-90
2023/04/05 12:23:14;;;;;;;;;;;;;;;13.29;100.00;100333.25;4912496;29;19966;-90
2023/04/05 12:25:51;;;;;;;;;;;;;;;13.34;100.00;100333.59;4919292;29;19961;-89
2023/04/05 12:28:20;;;;;;;;;;;;;;;13.34;100.00;100340.72;4903500;29;19915;-90
2023/04/05 12:30:49;;;;;;;;;;;;;;;13.37;100.00;100335.09;4918893;29;19914;-89
2023/04/05 12:33:27;;;;;;;;;;;;;;;13.40;100.00;100330.28;4903993;29;19915;-90
2023/04/05 12:35:58;;;;;;;;;;;;;;;13.39;100.00;100331.25;4928859;29;19914;-89
2023/04/05 12:38:27;;;;;;;;;;;;;;;13.35;100.00;100329.09;4923328;29;19930;-89
2023/04/05 12:41:02;;;;;;;;;;;;;;;13.33;100.00;100333.75;4938386;29;20470;-88
2023/04/05 12:43:38;;;;;;;;;;;;;;;13.31;100.00;100325.97;4889403;29;20013;-89
2023/04/05 12:46:18;;;;;;;;;;;;;;;13.32;100.00;100314.34;4921797;29;19919;-89
2023/04/05 12:48:52;;;;;;;;;;;;;;;13.34;100.00;100317.69;4895222;29;20524;-89
2023/04/05 12:51:24;;;;;;;;;;;;;;;13.37;100.00;100308.53;4933088;29;20422;-88
2023/04/05 12:53:55;;;;;;;;;;;;;;;13.37;100.00;100309.38;4902684;29;19970;-88